Time;durP1;ratioP1;P1;durP2;ratioP2;P2;SDS_P1;SDS_P2;PMS_P1;PMS_P2;Temp;Humidity;BMP_temperature;BMP_pressure;BME280_temperature;BME280_humidity;BME280_pressure;Samples;Min_cycle;Max_cycle;Signal;HPM_P1;HPM_P2
2023/06/01 00:02:18;;;;;;;;;;;;;;;;;;4961361;28;19919;-73
2023/06/01 00:05:05;;;;;;;;;;;;;;;;;;4961354;28;19922;-72
2023/06/01 00:07:52;;;;;;;;;;;;;;;;;;4966220;28;20401;-73
2023/06/01 00:10:38;;;;;;;;;;;;;;;;;;4965950;28;20394;-73
2023/06/01 00:13:25;;;;;;;;;;;;;;;;;;4959041;28;20306;-73
2023/06/01 00:16:12;;;;;;;;;;;;;;;;;;4966139;28;19929;-73
2023/06/01 00:19:00;;;;;;;;;;;;;;;;;;4960264;28;19922;-72
2023/06/01 00:21:47;;;;;;;;;;;;;;;;;;4964856;28;19937;-73
2023/06/01 00:24:33;;;;;;;;;;;;;;;;;;4960355;28;19929;-72
2023/06/01 00:27:20;;;;;;;;;;;;;;;;;;4956392;28;20334;-72
2023/06/01 00:30:06;;;;;;;;;;;;;;;;;;4958962;28;20387;-72
2023/06/01 00:32:53;;;;;;;;;;;;;;;;;;4951687;28;19919;-73
2023/06/01 00:35:39;;;;;;;;;;;;;;;;;;4957271;28;19945;-72
2023/06/01 00:38:25;;;;;;;;;;;;;;;;;;4960711;28;19925;-73
2023/06/01 00:41:12;;;;;;;;;;;;;;;;;;4961517;28;19922;-72
2023/06/01 00:43:58;;;;;;;;;;;;;;;;;;4959614;28;19930;-71
2023/06/01 00:46:45;;;;;;;;;;;;;;;;;;4941681;28;19922;-73
2023/06/01 00:49:32;;;;;;;;;;;;;;;;;;4959955;28;19922;-73
2023/06/01 00:52:18;;;;;;;;;;;;;;;;;;4966606;28;20382;-73
2023/06/01 00:55:05;;;;;;;;;;;;;;;;;;4960088;28;19922;-72
2023/06/01 00:57:51;;;;;;;;;;;;;;;;;;4954412;28;20405;-73
2023/06/01 01:00:37;;;;;;;;;;;;;;;;;;4963552;28;19929;-73
2023/06/01 01:03:25;;;;;;;;;;;;;;;;;;4963956;28;19933;-73
2023/06/01 01:06:13;;;;;;;;;;;;;;;;;;4948151;28;19929;-74
2023/06/01 01:08:59;;;;;;;;;;;;;;;;;;4963854;28;19968;-73
2023/06/01 01:11:46;;;;;;;;;;;;;;;;;;4958602;28;19918;-73
2023/06/01 01:14:32;;;;;;;;;;;;;;;;;;4953448;28;19930;-73
2023/06/01 01:17:19;;;;;;;;;;;;;;;;;;4964266;28;19926;-74
2023/06/01 01:20:08;;;;;;;;;;;;;;;;;;4956126;28;19922;-75
2023/06/01 01:22:56;;;;;;;;;;;;;;;;;;4960946;28;19939;-75
2023/06/01 01:25:42;;;;;;;;;;;;;;;;;;4962448;28;19937;-75
2023/06/01 01:28:29;;;;;;;;;;;;;;;;;;4960859;28;19918;-74
2023/06/01 01:31:15;;;;;;;;;;;;;;;;;;4971806;28;19934;-73
2023/06/01 01:34:02;;;;;;;;;;;;;;;;;;4968657;28;19922;-72
2023/06/01 01:36:48;;;;;;;;;;;;;;;;;;4971214;28;19930;-73
2023/06/01 01:39:35;;;;;;;;;;;;;;;;;;4954227;28;19919;-74
2023/06/01 01:42:21;;;;;;;;;;;;;;;;;;4954747;28;19918;-72
2023/06/01 01:45:08;;;;;;;;;;;;;;;;;;4958409;28;19937;-74
2023/06/01 01:47:55;;;;;;;;;;;;;;;;;;4965114;28;19922;-72
2023/06/01 01:50:41;;;;;;;;;;;;;;;;;;4970318;28;20378;-72
2023/06/01 01:53:28;;;;;;;;;;;;;;;;;;4965133;28;19930;-72
2023/06/01 01:56:15;;;;;;;;;;;;;;;;;;4956485;28;20346;-73
2023/06/01 01:59:01;;;;;;;;;;;;;;;;;;4947991;28;20306;-73
2023/06/01 02:01:47;;;;;;;;;;;;;;;;;;4953397;28;20316;-73
2023/06/01 02:04:34;;;;;;;;;;;;;;;;;;4960127;28;19930;-73
2023/06/01 02:07:21;;;;;;;;;;;;;;;;;;4957101;28;19944;-73
2023/06/01 02:10:07;;;;;;;;;;;;;;;;;;4965319;28;19925;-73
2023/06/01 02:12:54;;;;;;;;;;;;;;;;;;4957505;28;19919;-72
2023/06/01 02:15:40;;;;;;;;;;;;;;;;;;4955552;28;20610;-73
2023/06/01 02:18:29;;;;;;;;;;;;;;;;;;4956504;28;19918;-73
2023/06/01 02:21:16;;;;;;;;;;;;;;;;;;4955919;28;19959;-74
2023/06/01 02:24:05;;;;;;;;;;;;;;;;;;4952513;28;19934;-73
2023/06/01 02:26:53;;;;;;;;;;;;;;;;;;4966023;28;19987;-73
2023/06/01 02:29:40;;;;;;;;;;;;;;;;;;4955654;28;19929;-73
2023/06/01 02:32:26;;;;;;;;;;;;;;;;;;4958312;28;19918;-73
2023/06/01 02:35:13;;;;;;;;;;;;;;;;;;4957328;28;20382;-73
2023/06/01 02:37:59;;;;;;;;;;;;;;;;;;4954979;28;20390;-74
2023/06/01 02:40:46;;;;;;;;;;;;;;;;;;4953245;28;19945;-73
2023/06/01 02:43:32;;;;;;;;;;;;;;;;;;4957400;28;19933;-74
2023/06/01 02:46:19;;;;;;;;;;;;;;;;;;4959125;28;19933;-73
2023/06/01 02:49:06;;;;;;;;;;;;;;;;;;4960604;28;19925;-73
2023/06/01 02:51:52;;;;;;;;;;;;;;;;;;4954863;28;19925;-73
2023/06/01 02:54:38;;;;;;;;;;;;;;;;;;4960186;28;19925;-72
2023/06/01 02:57:25;;;;;;;;;;;;;;;;;;4966361;28;19926;-72
2023/06/01 03:00:15;;;;;;;;;;;;;;;;;;4959216;28;19925;-73
2023/06/01 03:03:03;;;;;;;;;;;;;;;;;;4955015;28;19938;-72
2023/06/01 03:05:50;;;;;;;;;;;;;;;;;;4956330;28;19922;-72
2023/06/01 03:08:36;;;;;;;;;;;;;;;;;;4944833;28;20505;-73
2023/06/01 03:11:23;;;;;;;;;;;;;;;;;;4958375;28;19926;-74
2023/06/01 03:14:10;;;;;;;;;;;;;;;;;;4950962;28;19928;-73
2023/06/01 03:16:56;;;;;;;;;;;;;;;;;;4956026;28;19946;-73
2023/06/01 03:19:43;;;;;;;;;;;;;;;;;;4951570;28;19925;-73
2023/06/01 03:22:29;;;;;;;;;;;;;;;;;;4957208;28;19922;-73
2023/06/01 03:25:16;;;;;;;;;;;;;;;;;;4956971;28;19925;-73
2023/06/01 03:28:02;;;;;;;;;;;;;;;;;;4957890;28;20271;-73
2023/06/01 03:30:49;;;;;;;;;;;;;;;;;;4956062;28;19923;-73
2023/06/01 03:33:35;;;;;;;;;;;;;;;;;;4962942;28;19915;-73
2023/06/01 03:36:22;;;;;;;;;;;;;;;;;;4960984;28;19948;-74
2023/06/01 03:39:08;;;;;;;;;;;;;;;;;;4963494;28;19944;-75
2023/06/01 03:41:55;;;;;;;;;;;;;;;;;;4963348;28;19922;-73
2023/06/01 03:44:41;;;;;;;;;;;;;;;;;;4963554;28;19932;-73
2023/06/01 03:47:28;;;;;;;;;;;;;;;;;;4957712;28;19929;-74
2023/06/01 03:50:14;;;;;;;;;;;;;;;;;;4961855;28;19929;-74
2023/06/01 03:53:01;;;;;;;;;;;;;;;;;;4957451;28;19918;-74
2023/06/01 03:55:48;;;;;;;;;;;;;;;;;;4958087;28;19926;-74
2023/06/01 03:58:34;;;;;;;;;;;;;;;;;;4961122;28;19947;-74
2023/06/01 04:01:22;;;;;;;;;;;;;;;;;;4965329;28;20309;-74
2023/06/01 04:04:08;;;;;;;;;;;;;;;;;;4951628;28;19927;-74
2023/06/01 04:07:00;;;;;;;;;;;;;;;;;;4966889;28;19926;-73
2023/06/01 04:09:47;;;;;;;;;;;;;;;;;;4956054;28;19933;-78
2023/06/01 04:12:33;;;;;;;;;;;;;;;;;;4963135;28;19949;-74
2023/06/01 04:15:20;;;;;;;;;;;;;;;;;;4953541;28;19914;-74
2023/06/01 04:18:06;;;;;;;;;;;;;;;;;;4966573;28;19956;-73
2023/06/01 04:20:53;;;;;;;;;;;;;;;;;;4961205;28;19922;-74
2023/06/01 04:23:42;;;;;;;;;;;;;;;;;;4955239;28;19926;-74
2023/06/01 04:26:31;;;;;;;;;;;;;;;;;;4964352;28;19941;-73
2023/06/01 04:29:21;;;;;;;;;;;;;;;;;;4961094;28;19918;-75
2023/06/01 04:32:07;;;;;;;;;;;;;;;;;;4960493;28;19926;-73
2023/06/01 04:34:56;;;;;;;;;;;;;;;;;;4961147;28;19934;-74
2023/06/01 04:37:43;;;;;;;;;;;;;;;;;;4963054;28;20398;-74
2023/06/01 04:40:30;;;;;;;;;;;;;;;;;;4961116;28;19934;-74
2023/06/01 04:43:18;;;;;;;;;;;;;;;;;;4961279;28;20312;-75
2023/06/01 04:46:05;;;;;;;;;;;;;;;;;;4963922;28;20003;-74
2023/06/01 04:48:51;;;;;;;;;;;;;;;;;;4960971;28;19918;-74
2023/06/01 04:51:38;;;;;;;;;;;;;;;;;;4961190;28;19934;-74
2023/06/01 04:54:24;;;;;;;;;;;;;;;;;;4928980;28;19929;-74
2023/06/01 04:57:14;;;;;;;;;;;;;;;;;;4961311;28;20007;-75
2023/06/01 05:00:00;;;;;;;;;;;;;;;;;;4963917;28;19925;-74
2023/06/01 05:02:50;;;;;;;;;;;;;;;;;;4959531;28;19942;-74
2023/06/01 05:05:36;;;;;;;;;;;;;;;;;;4947553;28;19938;-74
2023/06/01 05:08:23;;;;;;;;;;;;;;;;;;4960855;28;19923;-74
2023/06/01 05:11:09;;;;;;;;;;;;;;;;;;4960375;28;19934;-75
2023/06/01 05:14:01;;;;;;;;;;;;;;;;;;4964953;28;19918;-74
2023/06/01 05:16:48;;;;;;;;;;;;;;;;;;4960527;28;19926;-74
2023/06/01 05:19:35;;;;;;;;;;;;;;;;;;4959271;28;19918;-74
2023/06/01 05:22:21;;;;;;;;;;;;;;;;;;4955940;28;20408;-74
2023/06/01 05:25:08;;;;;;;;;;;;;;;;;;4964844;28;20004;-74
2023/06/01 05:27:54;;;;;;;;;;;;;;;;;;4959682;28;19922;-74
2023/06/01 05:30:41;;;;;;;;;;;;;;;;;;4960771;28;19922;-74
2023/06/01 05:33:27;;;;;;;;;;;;;;;;;;4964064;28;19919;-74
2023/06/01 05:36:14;;;;;;;;;;;;;;;;;;4962701;28;20302;-76
2023/06/01 05:39:00;;;;;;;;;;;;;;;;;;4947969;28;20663;-76
2023/06/01 05:41:46;;;;;;;;;;;;;;;;;;4959276;28;19923;-73
2023/06/01 05:44:33;;;;;;;;;;;;;;;;;;4959330;28;19960;-74
2023/06/01 05:47:19;;;;;;;;;;;;;;;;;;4958569;28;19926;-72
2023/06/01 05:50:06;;;;;;;;;;;;;;;;;;4959108;28;19922;-73
2023/06/01 05:52:53;;;;;;;;;;;;;;;;;;4956464;28;19920;-73
2023/06/01 05:55:40;;;;;;;;;;;;;;;;;;4955890;28;20418;-72
2023/06/01 05:58:26;;;;;;;;;;;;;;;;;;4962044;28;19924;-73
2023/06/01 06:01:13;;;;;;;;;;;;;;;;;;4959761;28;19922;-73
2023/06/01 06:03:59;;;;;;;;;;;;;;;;;;4964395;28;20353;-73
2023/06/01 06:06:46;;;;;;;;;;;;;;;;;;4961643;28;19918;-73
2023/06/01 06:09:33;;;;;;;;;;;;;;;;;;4962970;28;19926;-73
2023/06/01 06:12:19;;;;;;;;;;;;;;;;;;4966639;28;19923;-73
2023/06/01 06:15:06;;;;;;;;;;;;;;;;;;4958051;28;19926;-72
2023/06/01 06:17:52;;;;;;;;;;;;;;;;;;4957683;28;19934;-73
2023/06/01 06:20:39;;;;;;;;;;;;;;;;;;4957507;28;19940;-73
2023/06/01 06:23:27;;;;;;;;;;;;;;;;;;4948989;28;19930;-73
2023/06/01 06:26:13;;;;;;;;;;;;;;;;;;4960816;28;19930;-73
2023/06/01 06:29:00;;;;;;;;;;;;;;;;;;4960361;28;20680;-73
2023/06/01 06:31:46;;;;;;;;;;;;;;;;;;4957254;28;19922;-72
2023/06/01 06:34:36;;;;;;;;;;;;;;;;;;4959531;28;19918;-72
2023/06/01 06:37:22;;;;;;;;;;;;;;;;;;4958450;28;19929;-72
2023/06/01 06:40:09;;;;;;;;;;;;;;;;;;4962569;28;19925;-73
2023/06/01 06:42:55;;;;;;;;;;;;;;;;;;4957081;28;19925;-73
2023/06/01 06:45:42;;;;;;;;;;;;;;;;;;4963472;28;19926;-73
2023/06/01 06:48:28;;;;;;;;;;;;;;;;;;4961455;28;19933;-72
2023/06/01 06:51:15;;;;;;;;;;;;;;;;;;4960232;28;19918;-73
2023/06/01 06:54:05;;;;;;;;;;;;;;;;;;4964681;28;19925;-73
2023/06/01 06:56:51;;;;;;;;;;;;;;;;;;4962249;28;19921;-73
2023/06/01 06:59:38;;;;;;;;;;;;;;;;;;4960081;28;19922;-72
2023/06/01 07:02:25;;;;;;;;;;;;;;;;;;4946445;28;19957;-73
2023/06/01 07:05:12;;;;;;;;;;;;;;;;;;4963230;28;19936;-72
2023/06/01 07:07:58;;;;;;;;;;;;;;;;;;4960474;28;19925;-71
2023/06/01 07:10:45;;;;;;;;;;;;;;;;;;4960584;28;19922;-73
2023/06/01 07:13:31;;;;;;;;;;;;;;;;;;4961744;28;19922;-73
2023/06/01 07:16:18;;;;;;;;;;;;;;;;;;4946488;28;19918;-73
2023/06/01 07:19:05;;;;;;;;;;;;;;;;;;4961658;28;19929;-73
2023/06/01 07:21:51;;;;;;;;;;;;;;;;;;4952962;28;19925;-73
2023/06/01 07:24:37;;;;;;;;;;;;;;;;;;4956605;28;19948;-73
2023/06/01 07:27:24;;;;;;;;;;;;;;;;;;4958085;28;19930;-72
2023/06/01 07:30:12;;;;;;;;;;;;;;;;;;4962327;28;19933;-72
2023/06/01 07:32:58;;;;;;;;;;;;;;;;;;4963254;28;20810;-73
2023/06/01 07:35:45;;;;;;;;;;;;;;;;;;4956071;28;19929;-73
2023/06/01 07:38:32;;;;;;;;;;;;;;;;;;4961650;28;19922;-73
2023/06/01 07:41:19;;;;;;;;;;;;;;;;;;4960486;28;20286;-73
2023/06/01 07:44:07;;;;;;;;;;;;;;;;;;4964988;28;19929;-73
2023/06/01 07:46:54;;;;;;;;;;;;;;;;;;4964400;28;19933;-73
2023/06/01 07:49:40;;;;;;;;;;;;;;;;;;4962988;28;20378;-73
2023/06/01 07:52:26;;;;;;;;;;;;;;;;;;4963746;28;19933;-73
2023/06/01 07:55:13;;;;;;;;;;;;;;;;;;4963299;28;19928;-73
2023/06/01 07:58:00;;;;;;;;;;;;;;;;;;4966340;28;19929;-73
2023/06/01 08:00:46;;;;;;;;;;;;;;;;;;4957574;28;19945;-73
2023/06/01 08:03:33;;;;;;;;;;;;;;;;;;4959856;28;19926;-73
2023/06/01 08:06:23;;;;;;;;;;;;;;;;;;4943840;28;19955;-73
2023/06/01 08:09:13;;;;;;;;;;;;;;;;;;4959733;28;20298;-74
2023/06/01 08:11:59;;;;;;;;;;;;;;;;;;4961147;28;19929;-73
2023/06/01 08:14:46;;;;;;;;;;;;;;;;;;4963800;28;19918;-73
2023/06/01 08:17:32;;;;;;;;;;;;;;;;;;4964196;28;19926;-73
2023/06/01 08:20:21;;;;;;;;;;;;;;;;;;4964791;28;19922;-73
2023/06/01 08:23:07;;;;;;;;;;;;;;;;;;4968332;28;19929;-73
2023/06/01 08:25:54;;;;;;;;;;;;;;;;;;4961559;28;19934;-72
2023/06/01 08:28:41;;;;;;;;;;;;;;;;;;4963784;28;19924;-73
2023/06/01 08:31:27;;;;;;;;;;;;;;;;;;4963476;28;19933;-73
2023/06/01 08:34:14;;;;;;;;;;;;;;;;;;4964009;28;20401;-74
2023/06/01 08:37:00;;;;;;;;;;;;;;;;;;4965041;28;19995;-72
2023/06/01 08:39:47;;;;;;;;;;;;;;;;;;4966013;28;19922;-73
2023/06/01 08:42:33;;;;;;;;;;;;;;;;;;4963372;28;19934;-73
2023/06/01 08:45:20;;;;;;;;;;;;;;;;;;4963984;28;19934;-73
2023/06/01 08:48:08;;;;;;;;;;;;;;;;;;4963141;28;19923;-73
2023/06/01 08:50:55;;;;;;;;;;;;;;;;;;4950082;28;19933;-73
2023/06/01 08:53:43;;;;;;;;;;;;;;;;;;4949640;28;20563;-73
2023/06/01 08:56:30;;;;;;;;;;;;;;;;;;4960422;28;19926;-73
2023/06/01 08:59:16;;;;;;;;;;;;;;;;;;4959748;28;20618;-73
2023/06/01 09:02:03;;;;;;;;;;;;;;;;;;4963110;28;19929;-72
2023/06/01 09:04:50;;;;;;;;;;;;;;;;;;4965008;28;19949;-73
2023/06/01 09:07:36;;;;;;;;;;;;;;;;;;4965491;28;19930;-72
2023/06/01 09:10:23;;;;;;;;;;;;;;;;;;4964606;28;19937;-73
2023/06/01 09:13:10;;;;;;;;;;;;;;;;;;4961980;28;20449;-73
2023/06/01 09:15:56;;;;;;;;;;;;;;;;;;4950497;28;19923;-73
2023/06/01 09:18:43;;;;;;;;;;;;;;;;;;4955806;28;20368;-72
2023/06/01 09:21:29;;;;;;;;;;;;;;;;;;4952680;28;19932;-73
2023/06/01 09:24:16;;;;;;;;;;;;;;;;;;4963201;28;19930;-73
2023/06/01 09:27:02;;;;;;;;;;;;;;;;;;4956035;28;19937;-73
2023/06/01 09:29:49;;;;;;;;;;;;;;;;;;4964576;28;20379;-73
2023/06/01 09:32:35;;;;;;;;;;;;;;;;;;4955136;28;19925;-73
2023/06/01 09:35:22;;;;;;;;;;;;;;;;;;4955332;28;19918;-73
2023/06/01 09:38:08;;;;;;;;;;;;;;;;;;4946572;28;19922;-76
2023/06/01 09:40:55;;;;;;;;;;;;;;;;;;4959458;28;19922;-73
2023/06/01 09:43:42;;;;;;;;;;;;;;;;;;4962920;28;19933;-74
2023/06/01 09:46:28;;;;;;;;;;;;;;;;;;4953669;28;19918;-73
2023/06/01 09:49:15;;;;;;;;;;;;;;;;;;4952121;28;20630;-73
2023/06/01 09:52:01;;;;;;;;;;;;;;;;;;4948788;28;19923;-73
2023/06/01 09:54:48;;;;;;;;;;;;;;;;;;4956019;28;19921;-73
2023/06/01 09:57:34;;;;;;;;;;;;;;;;;;4958704;28;19919;-73
2023/06/01 10:00:22;;;;;;;;;;;;;;;;;;4959227;28;19918;-73
2023/06/01 10:03:08;;;;;;;;;;;;;;;;;;4959708;28;20322;-73
2023/06/01 10:05:55;;;;;;;;;;;;;;;;;;4963098;28;19941;-73
2023/06/01 10:08:41;;;;;;;;;;;;;;;;;;4960047;28;19914;-73
2023/06/01 10:11:28;;;;;;;;;;;;;;;;;;4957555;28;20271;-73
2023/06/01 10:14:14;;;;;;;;;;;;;;;;;;4956239;28;19926;-74
2023/06/01 10:17:01;;;;;;;;;;;;;;;;;;4958498;28;19937;-72
2023/06/01 10:19:47;;;;;;;;;;;;;;;;;;4953348;28;19919;-73
2023/06/01 10:22:33;;;;;;;;;;;;;;;;;;4957033;28;19932;-73
2023/06/01 10:25:20;;;;;;;;;;;;;;;;;;4950955;28;19926;-73
2023/06/01 10:28:10;;;;;;;;;;;;;;;;;;4950141;28;19922;-73
2023/06/01 10:30:56;;;;;;;;;;;;;;;;;;4950359;28;19922;-73
2023/06/01 10:33:43;;;;;;;;;;;;;;;;;;4955509;28;19914;-73
2023/06/01 10:36:31;;;;;;;;;;;;;;;;;;4963526;28;19922;-73
2023/06/01 10:39:17;;;;;;;;;;;;;;;;;;4950019;28;19922;-73
2023/06/01 10:42:05;;;;;;;;;;;;;;;;;;4953918;28;19930;-73
2023/06/01 10:44:51;;;;;;;;;;;;;;;;;;4957227;28;19930;-73
2023/06/01 10:47:38;;;;;;;;;;;;;;;;;;4955731;28;19919;-72
2023/06/01 10:50:24;;;;;;;;;;;;;;;;;;4962629;28;19925;-73
2023/06/01 10:53:11;;;;;;;;;;;;;;;;;;4946355;28;20396;-74
2023/06/01 10:55:57;;;;;;;;;;;;;;;;;;4954281;28;19918;-74
2023/06/01 10:58:44;;;;;;;;;;;;;;;;;;4960510;28;20586;-73
2023/06/01 11:01:30;;;;;;;;;;;;;;;;;;4960960;28;19926;-73
2023/06/01 11:04:17;;;;;;;;;;;;;;;;;;4943941;28;19938;-74
2023/06/01 11:07:06;;;;;;;;;;;;;;;;;;4974375;28;19915;-74
2023/06/01 11:09:52;;;;;;;;;;;;;;;;;;4959241;28;19925;-73
2023/06/01 11:12:39;;;;;;;;;;;;;;;;;;4959514;28;19918;-74
2023/06/01 11:15:26;;;;;;;;;;;;;;;;;;4962740;28;19918;-74
2023/06/01 11:18:13;;;;;;;;;;;;;;;;;;4961690;28;19922;-74
2023/06/01 11:21:00;;;;;;;;;;;;;;;;;;4960747;28;20286;-72
2023/06/01 11:23:46;;;;;;;;;;;;;;;;;;4963953;28;19926;-73
2023/06/01 11:26:32;;;;;;;;;;;;;;;;;;4960514;28;19941;-73
2023/06/01 11:29:19;;;;;;;;;;;;;;;;;;4966601;28;19945;-73
2023/06/01 11:32:06;;;;;;;;;;;;;;;;;;4959383;28;19922;-73
2023/06/01 11:34:54;;;;;;;;;;;;;;;;;;4964633;28;19922;-73
2023/06/01 11:37:40;;;;;;;;;;;;;;;;;;4962555;28;19918;-73
2023/06/01 11:40:28;;;;;;;;;;;;;;;;;;4950501;28;19918;-74
2023/06/01 11:43:15;;;;;;;;;;;;;;;;;;4972112;28;19925;-73
2023/06/01 11:46:02;;;;;;;;;;;;;;;;;;4963064;28;20171;-72
2023/06/01 11:48:48;;;;;;;;;;;;;;;;;;4958014;28;19937;-73
2023/06/01 11:51:35;;;;;;;;;;;;;;;;;;4949121;28;20013;-73
2023/06/01 11:54:21;;;;;;;;;;;;;;;;;;4962621;28;19926;-74
2023/06/01 11:57:08;;;;;;;;;;;;;;;;;;4955482;28;19922;-73
2023/06/01 11:59:54;;;;;;;;;;;;;;;;;;4961708;28;20429;-73
2023/06/01 12:02:42;;;;;;;;;;;;;;;;;;4951495;28;19919;-73
2023/06/01 12:05:29;;;;;;;;;;;;;;;;;;4948422;28;20828;-73
2023/06/01 12:08:16;;;;;;;;;;;;;;;;;;4962804;28;19946;-73
2023/06/01 12:11:03;;;;;;;;;;;;;;;;;;4956577;28;19918;-73
2023/06/01 12:13:49;;;;;;;;;;;;;;;;;;4952368;28;19934;-73
2023/06/01 12:16:37;;;;;;;;;;;;;;;;;;4958962;28;20355;-72
2023/06/01 12:19:23;;;;;;;;;;;;;;;;;;4958725;28;19919;-73
2023/06/01 12:22:10;;;;;;;;;;;;;;;;;;4949010;28;20405;-74
2023/06/01 12:24:57;;;;;;;;;;;;;;;;;;4963497;28;19926;-73
2023/06/01 12:27:44;;;;;;;;;;;;;;;;;;4955105;28;19937;-73
2023/06/01 12:30:32;;;;;;;;;;;;;;;;;;4967608;28;21555;-73
2023/06/01 12:33:19;;;;;;;;;;;;;;;;;;4956963;28;19921;-73
2023/06/01 12:36:06;;;;;;;;;;;;;;;;;;4960081;28;19946;-73
2023/06/01 12:38:52;;;;;;;;;;;;;;;;;;4960560;28;19918;-73
2023/06/01 12:41:39;;;;;;;;;;;;;;;;;;4965198;28;20378;-73
2023/06/01 12:44:26;;;;;;;;;;;;;;;;;;4954402;28;20400;-73
2023/06/01 12:47:13;;;;;;;;;;;;;;;;;;4964577;28;19926;-73
2023/06/01 12:49:59;;;;;;;;;;;;;;;;;;4962747;28;20661;-73
2023/06/01 12:52:46;;;;;;;;;;;;;;;;;;4938099;28;19922;-73
2023/06/01 12:55:32;;;;;;;;;;;;;;;;;;4938006;28;20651;-73
2023/06/01 12:58:19;;;;;;;;;;;;;;;;;;4937452;28;19934;-74
2023/06/01 13:01:05;;;;;;;;;;;;;;;;;;4934574;28;19923;-73
2023/06/01 13:03:52;;;;;;;;;;;;;;;;;;4942905;28;19950;-73
2023/06/01 13:06:39;;;;;;;;;;;;;;;;;;4954112;28;20400;-73
2023/06/01 13:09:25;;;;;;;;;;;;;;;;;;4954831;28;19922;-73
2023/06/01 13:12:12;;;;;;;;;;;;;;;;;;4950526;28;19923;-74
2023/06/01 13:14:59;;;;;;;;;;;;;;;;;;4945089;28;20298;-73
2023/06/01 13:17:45;;;;;;;;;;;;;;;;;;4955779;28;19915;-73
2023/06/01 13:20:32;;;;;;;;;;;;;;;;;;4937741;29;19929;-73
2023/06/01 13:23:18;;;;;;;;;;;;;;;;;;4945917;28;19938;-73
2023/06/01 13:26:05;;;;;;;;;;;;;;;;;;4941973;28;19987;-73
2023/06/01 13:28:52;;;;;;;;;;;;;;;;;;4910297;29;20430;-73
2023/06/01 13:31:38;;;;;;;;;;;;;;;;;;4916595;29;19923;-73
2023/06/01 13:34:25;;;;;;;;;;;;;;;;;;4921177;29;20371;-73
2023/06/01 13:37:12;;;;;;;;;;;;;;;;;;4929112;29;19922;-74
2023/06/01 13:39:59;;;;;;;;;;;;;;;;;;4924870;29;19945;-73
2023/06/01 13:42:46;;;;;;;;;;;;;;;;;;4914319;29;19928;-73
2023/06/01 13:45:32;;;;;;;;;;;;;;;;;;4943327;28;19942;-73
2023/06/01 13:48:19;;;;;;;;;;;;;;;;;;4937483;29;19929;-73
2023/06/01 13:51:06;;;;;;;;;;;;;;;;;;4945535;29;19918;-73
2023/06/01 13:53:52;;;;;;;;;;;;;;;;;;4940178;29;20472;-73
2023/06/01 13:56:38;;;;;;;;;;;;;;;;;;4931772;29;19926;-73
2023/06/01 13:59:25;;;;;;;;;;;;;;;;;;4931770;29;20287;-73
2023/06/01 14:02:12;;;;;;;;;;;;;;;;;;4942707;29;19927;-74
2023/06/01 14:04:58;;;;;;;;;;;;;;;;;;4943939;29;19933;-73
2023/06/01 14:07:45;;;;;;;;;;;;;;;;;;4935176;29;19922;-73
2023/06/01 14:10:33;;;;;;;;;;;;;;;;;;4939898;28;19930;-73
2023/06/01 14:13:20;;;;;;;;;;;;;;;;;;4932209;29;19929;-73
2023/06/01 14:16:07;;;;;;;;;;;;;;;;;;4938603;29;19926;-73
2023/06/01 14:18:53;;;;;;;;;;;;;;;;;;4936311;29;19923;-73
2023/06/01 14:21:40;;;;;;;;;;;;;;;;;;4935157;29;19930;-73
2023/06/01 14:24:26;;;;;;;;;;;;;;;;;;4942470;29;19922;-74
2023/06/01 14:27:13;;;;;;;;;;;;;;;;;;4959424;28;19934;-73
2023/06/01 14:30:02;;;;;;;;;;;;;;;;;;4958228;28;19926;-73
2023/06/01 14:32:49;;;;;;;;;;;;;;;;;;4957292;28;19918;-73
2023/06/01 14:35:36;;;;;;;;;;;;;;;;;;4949591;28;20677;-73
2023/06/01 14:38:22;;;;;;;;;;;;;;;;;;4962574;28;19933;-74
2023/06/01 14:41:09;;;;;;;;;;;;;;;;;;4950095;28;19924;-73
2023/06/01 14:43:55;;;;;;;;;;;;;;;;;;4960387;28;19933;-73
2023/06/01 14:46:42;;;;;;;;;;;;;;;;;;4957984;28;20330;-73
2023/06/01 14:49:28;;;;;;;;;;;;;;;;;;4959580;28;20629;-74
2023/06/01 14:52:15;;;;;;;;;;;;;;;;;;4961216;28;19922;-75
2023/06/01 14:55:01;;;;;;;;;;;;;;;;;;4958631;28;19937;-76
2023/06/01 14:57:48;;;;;;;;;;;;;;;;;;4960593;28;19925;-77
2023/06/01 15:00:34;;;;;;;;;;;;;;;;;;4960852;28;19937;-76
2023/06/01 15:03:21;;;;;;;;;;;;;;;;;;4961074;28;19925;-76
2023/06/01 15:06:07;;;;;;;;;;;;;;;;;;4963485;28;19960;-76
2023/06/01 15:08:54;;;;;;;;;;;;;;;;;;4962333;28;19918;-76
2023/06/01 15:11:40;;;;;;;;;;;;;;;;;;4954886;28;19922;-76
2023/06/01 15:14:27;;;;;;;;;;;;;;;;;;4962270;28;19926;-77
2023/06/01 15:17:13;;;;;;;;;;;;;;;;;;4956078;28;20369;-76
2023/06/01 15:20:00;;;;;;;;;;;;;;;;;;4954612;28;19918;-76
2023/06/01 15:22:47;;;;;;;;;;;;;;;;;;4957457;28;20488;-76
2023/06/01 15:25:33;;;;;;;;;;;;;;;;;;4958260;28;19934;-76
2023/06/01 15:28:20;;;;;;;;;;;;;;;;;;4947761;28;19919;-76
2023/06/01 15:31:06;;;;;;;;;;;;;;;;;;4962553;28;19918;-76
2023/06/01 15:33:53;;;;;;;;;;;;;;;;;;4965628;28;20301;-75
2023/06/01 15:36:39;;;;;;;;;;;;;;;;;;4954530;28;19922;-75
2023/06/01 15:39:26;;;;;;;;;;;;;;;;;;4958603;28;20397;-75
2023/06/01 15:42:12;;;;;;;;;;;;;;;;;;4956220;28;19934;-76
2023/06/01 15:44:59;;;;;;;;;;;;;;;;;;4952335;28;19930;-76
2023/06/01 15:47:46;;;;;;;;;;;;;;;;;;4955323;28;19922;-77
2023/06/01 15:50:32;;;;;;;;;;;;;;;;;;4960553;28;20265;-75
2023/06/01 15:53:19;;;;;;;;;;;;;;;;;;4960435;28;20567;-76
2023/06/01 15:56:05;;;;;;;;;;;;;;;;;;4962290;28;19918;-76
2023/06/01 15:58:52;;;;;;;;;;;;;;;;;;4959455;28;19926;-77
2023/06/01 16:01:38;;;;;;;;;;;;;;;;;;4955980;28;19945;-76
2023/06/01 16:04:25;;;;;;;;;;;;;;;;;;4943721;28;20286;-76
2023/06/01 16:07:11;;;;;;;;;;;;;;;;;;4956445;28;20381;-76
2023/06/01 16:09:58;;;;;;;;;;;;;;;;;;4960613;28;19929;-75
2023/06/01 16:12:44;;;;;;;;;;;;;;;;;;4958791;28;19924;-76
2023/06/01 16:15:31;;;;;;;;;;;;;;;;;;4947525;28;19928;-76
2023/06/01 16:18:18;;;;;;;;;;;;;;;;;;4961297;28;19957;-75
2023/06/01 16:21:05;;;;;;;;;;;;;;;;;;4952026;28;19914;-75
2023/06/01 16:23:51;;;;;;;;;;;;;;;;;;4955286;28;19914;-75
2023/06/01 16:26:38;;;;;;;;;;;;;;;;;;4958680;28;19930;-76
2023/06/01 16:29:24;;;;;;;;;;;;;;;;;;4953606;28;20267;-76
2023/06/01 16:32:11;;;;;;;;;;;;;;;;;;4955362;28;19918;-76
2023/06/01 16:34:57;;;;;;;;;;;;;;;;;;4955886;28;19922;-76
2023/06/01 16:37:45;;;;;;;;;;;;;;;;;;4958770;28;20294;-76
2023/06/01 16:40:31;;;;;;;;;;;;;;;;;;4956813;28;19918;-75
2023/06/01 16:43:18;;;;;;;;;;;;;;;;;;4970230;28;19922;-76
2023/06/01 16:46:05;;;;;;;;;;;;;;;;;;4954312;28;19933;-77
2023/06/01 16:48:51;;;;;;;;;;;;;;;;;;4957873;28;20392;-75
2023/06/01 16:51:38;;;;;;;;;;;;;;;;;;4958606;28;19929;-76
2023/06/01 16:54:24;;;;;;;;;;;;;;;;;;4958627;28;19914;-75
2023/06/01 16:57:11;;;;;;;;;;;;;;;;;;4954900;28;19925;-76
2023/06/01 16:59:57;;;;;;;;;;;;;;;;;;4954310;28;19918;-76
2023/06/01 17:02:44;;;;;;;;;;;;;;;;;;4958586;28;19923;-75
2023/06/01 17:05:30;;;;;;;;;;;;;;;;;;4962028;28;19937;-76
2023/06/01 17:08:16;;;;;;;;;;;;;;;;;;4958436;28;20484;-76
2023/06/01 17:11:03;;;;;;;;;;;;;;;;;;4961472;28;19922;-76
2023/06/01 17:13:49;;;;;;;;;;;;;;;;;;4957098;28;20020;-76
2023/06/01 17:16:36;;;;;;;;;;;;;;;;;;4961586;28;19918;-76
2023/06/01 17:19:22;;;;;;;;;;;;;;;;;;4966173;28;19926;-76
2023/06/01 17:22:10;;;;;;;;;;;;;;;;;;4959124;28;19928;-75
2023/06/01 17:24:56;;;;;;;;;;;;;;;;;;4963859;28;19926;-75
2023/06/01 17:27:48;;;;;;;;;;;;;;;;;;4962589;28;19930;-76
2023/06/01 17:30:34;;;;;;;;;;;;;;;;;;4964438;28;19919;-75
2023/06/01 17:33:21;;;;;;;;;;;;;;;;;;4961253;28;19942;-77
2023/06/01 17:36:07;;;;;;;;;;;;;;;;;;4961056;28;20366;-76
2023/06/01 17:38:54;;;;;;;;;;;;;;;;;;4964134;28;19922;-76
2023/06/01 17:41:42;;;;;;;;;;;;;;;;;;4959772;28;19918;-75
2023/06/01 17:44:29;;;;;;;;;;;;;;;;;;4948610;28;19929;-76
2023/06/01 17:47:15;;;;;;;;;;;;;;;;;;4948243;28;19926;-75
2023/06/01 17:50:02;;;;;;;;;;;;;;;;;;4955827;28;20222;-76
2023/06/01 17:52:48;;;;;;;;;;;;;;;;;;4956531;28;19929;-76
2023/06/01 17:55:35;;;;;;;;;;;;;;;;;;4962157;28;19933;-76
2023/06/01 17:58:21;;;;;;;;;;;;;;;;;;4960507;28;19925;-76
2023/06/01 18:01:07;;;;;;;;;;;;;;;;;;4956213;28;19926;-76
2023/06/01 18:03:54;;;;;;;;;;;;;;;;;;4954930;28;19929;-76
2023/06/01 18:06:40;;;;;;;;;;;;;;;;;;4962003;28;20326;-76
2023/06/01 18:09:27;;;;;;;;;;;;;;;;;;4965669;28;19925;-76
2023/06/01 18:12:13;;;;;;;;;;;;;;;;;;4953344;28;20412;-76
2023/06/01 18:15:00;;;;;;;;;;;;;;;;;;4961949;28;19926;-76
2023/06/01 18:17:46;;;;;;;;;;;;;;;;;;4953393;28;20290;-75
2023/06/01 18:20:33;;;;;;;;;;;;;;;;;;4959751;28;19929;-74
2023/06/01 18:23:19;;;;;;;;;;;;;;;;;;4958682;28;19934;-75
2023/06/01 18:26:08;;;;;;;;;;;;;;;;;;4959292;28;20216;-76
2023/06/01 18:28:57;;;;;;;;;;;;;;;;;;4963313;28;19918;-77
2023/06/01 18:31:45;;;;;;;;;;;;;;;;;;4959634;28;19922;-75
2023/06/01 18:34:31;;;;;;;;;;;;;;;;;;4955335;28;19923;-76
2023/06/01 18:37:18;;;;;;;;;;;;;;;;;;4947789;28;19926;-76
2023/06/01 18:40:04;;;;;;;;;;;;;;;;;;4955322;28;20490;-75
2023/06/01 18:42:51;;;;;;;;;;;;;;;;;;4955328;28;20378;-75
2023/06/01 18:45:37;;;;;;;;;;;;;;;;;;4957163;28;20739;-76
2023/06/01 18:48:24;;;;;;;;;;;;;;;;;;4963030;28;19922;-73
2023/06/01 18:51:11;;;;;;;;;;;;;;;;;;4965824;28;19933;-74
2023/06/01 18:53:58;;;;;;;;;;;;;;;;;;4947751;28;19922;-75
2023/06/01 18:56:46;;;;;;;;;;;;;;;;;;4956400;28;19933;-75
2023/06/01 18:59:33;;;;;;;;;;;;;;;;;;4955572;28;19919;-75